Latest Weather Observations for Coonamble

IDN60801

Issued at 9:02 am EDT Monday 23 January 2017 (issued every 30 minutes, with the page automatically refreshed every 10 minutes)

About weather observations | Map of weather stations | Latest weather observations for NSW | Other Formats
Station Details ID: 051161 Name: COONAMBLE AIRPORT AWS Lat: -30.98 Lon: 148.38 Height: 181.3 m
Data from the previous 72 hours. | See also: Recent months at Coonamble
Date/Time
EDT
Temp
°C
App
Temp
°C
Dew
Point
°C
Rel
Hum
%
Delta-T
°C
Wind Press
QNH
hPa
Press
MSL
hPa
Rain since
9am
mm
Dir  Spd
km/h
Gust
km/h
Spd
kts
Gust
kts
23/09:00am 26.5 22.8 17.0 56 6.0 NNE 32 44 17 24 1014.1 1013.0 0.0
23/08:36am 26.2 23.0 17.3 58 5.6 NNE 30 48 16 26 1013.9 1012.8 0.0
23/08:30am 26.1 22.6 18.0 61 5.1 NNE 33 44 18 24 1013.8 1012.7 0.0
23/08:00am 25.6 23.2 18.3 64 4.7 NNE 28 41 15 22 1013.8 1012.7 0.0
23/07:30am 25.3 23.4 19.4 70 3.8 NE 28 41 15 22 1013.1 1012.0 0.0
23/07:00am 25.2 23.9 19.8 72 3.5 NNE 26 35 14 19 1012.9 1011.8 0.0
23/06:30am 25.2 24.7 20.0 73 3.4 NNE 22 35 12 19 1012.7 1011.5 0.0
23/06:00am 25.6 24.3 19.9 70 3.7 NNE 26 37 14 20 1012.3 1011.1 0.0
23/05:30am 25.8 24.8 19.7 69 4.0 NNE 24 39 13 21 1011.8 1010.6 0.0
23/05:00am 26.2 25.2 19.6 67 4.3 NNE 24 37 13 20 1011.3 1010.2 0.0
23/04:30am 26.5 26.0 19.1 64 4.8 NNE 20 30 11 16 1011.2 1010.1 0.0
23/04:00am 26.9 27.1 19.3 63 4.9 NNE 17 24 9 13 1011.2 1010.1 0.0
23/03:30am 26.8 26.9 19.2 63 4.9 NNE 17 24 9 13 1011.0 1009.9 0.0
23/03:00am 25.3 25.6 18.0 64 4.6 NE 13 19 7 10 1011.1 1010.0 0.0
23/02:30am 25.2 25.1 17.9 64 4.6 ENE 15 17 8 9 1011.1 1010.0 0.0
23/02:00am 24.6 24.8 17.6 65 4.4 ENE 13 15 7 8 1011.1 1010.0 0.0
23/01:30am 26.2 26.6 17.3 58 5.6 NE 11 17 6 9 1011.1 1010.0 0.0
23/01:00am 26.3 26.3 17.1 57 5.8 ENE 13 17 7 9 1011.0 1009.9 0.0
23/12:30am 26.2 26.5 17.0 57 5.8 ENE 11 13 6 7 1011.2 1010.1 0.0
23/12:00am 26.8 26.9 16.4 53 6.5 NE 11 13 6 7 1011.1 1010.0 0.0
 
Date/Time
EDT
Temp
°C
App
Temp
°C
Dew
Point
°C
Rel
Hum
%
Delta-T
°C
Wind Press
QNH
hPa
Press
MSL
hPa
Rain since
9am
mm
Dir  Spd
km/h
Gust
km/h
Spd
kts
Gust
kts
22/11:30pm 27.4 27.2 15.7 48 7.2 ENE 11 13 6 7 1010.9 1009.8 0.0
22/11:00pm 28.3 27.5 15.2 44 8.1 ENE 13 17 7 9 1010.8 1009.7 0.0
22/10:30pm 29.4 28.0 14.4 40 9.1 ENE 15 19 8 10 1010.7 1009.6 0.0
22/10:00pm 29.2 28.1 14.2 40 9.1 E 13 17 7 9 1010.9 1009.8 0.0
22/09:30pm 29.6 28.7 13.8 38 9.5 E 11 13 6 7 1010.7 1009.6 0.0
22/09:00pm 30.8 29.3 13.1 34 10.6 E 13 17 7 9 1010.6 1009.5 0.0
22/08:30pm 31.3 30.0 12.6 31 11.2 E 11 15 6 8 1010.5 1009.4 0.0
22/08:00pm 33.0 30.8 12.1 28 12.5 ENE 15 20 8 11 1010.2 1009.1 0.0
22/07:30pm 34.3 32.5 12.0 25 13.3 ENE 13 17 7 9 1009.8 1008.7 0.0
22/07:00pm 35.0 33.0 12.6 26 13.6 ENE 15 19 8 10 1009.6 1008.5 0.0
22/06:30pm 35.2 32.7 12.2 25 13.9 E 17 28 9 15 1009.3 1008.2 0.0
22/06:00pm 35.6 34.1 11.9 24 14.3 ENE 11 20 6 11 1009.3 1008.2 0.0
22/05:30pm 35.8 33.4 12.7 25 14.0 NE 17 24 9 13 1009.5 1008.4 0.0
22/05:00pm 35.4 32.3 11.7 23 14.2 ENE 19 32 10 17 1010.0 1008.9 0.0
22/04:30pm 35.4 34.3 13.0 26 13.7 ENE 11 20 6 11 1010.4 1009.3 0.0
22/04:00pm 35.8 33.8 12.7 25 14.1 NE 15 24 8 13 1010.8 1009.7 0.0
22/03:30pm 34.4 32.6 12.1 26 13.4 NNE 13 20 7 11 1011.2 1010.1 0.0
22/03:00pm 34.9 32.8 12.5 25 13.5 NE 15 26 8 14 1011.5 1010.4 0.0
22/02:30pm 34.2 32.1 12.5 27 13.1 NNE 15 24 8 13 1011.9 1010.7 0.0
22/02:00pm 33.1 31.0 14.7 33 11.4 N 19 28 10 15 1012.3 1011.1 0.0
22/01:30pm 32.4 29.4 13.6 32 11.4 NNE 22 32 12 17 1012.7 1011.5 0.0
22/01:00pm 32.3 30.2 15.3 35 10.6 NNE 20 33 11 18 1013.0 1011.9 0.0
22/12:30pm 31.8 30.6 16.1 38 9.9 NE 17 26 9 14 1013.4 1012.3 0.0
22/12:00pm 31.1 29.3 15.9 40 9.5 NNE 20 30 11 16 1013.7 1012.6 0.0
22/11:30am 30.0 28.5 16.8 45 8.4 NE 20 33 11 18 1013.9 1012.8 0.0
22/11:00am 29.2 26.6 16.0 44 8.2 NNE 24 35 13 19 1014.2 1013.1 0.0
22/10:30am 28.0 26.3 16.3 49 7.3 NE 20 32 11 17 1014.3 1013.2 0.0
22/10:00am 27.4 25.4 16.4 51 6.9 NNE 22 33 12 18 1014.3 1013.2 0.0
22/09:30am 26.2 23.1 15.6 52 6.5 NE 26 39 14 21 1014.3 1013.2 0.0
22/09:00am 25.8 23.5 15.8 54 6.1 NE 22 33 12 18 1014.4 1013.3 0.0
22/08:30am 24.8 21.9 15.1 54 5.9 ENE 24 32 13 17 1014.3 1013.2 0.0
22/08:00am 23.4 19.7 14.9 59 5.1 ENE 28 33 15 18 1013.9 1012.8 0.0
22/07:30am 22.5 20.7 15.6 65 4.2 ENE 19 24 10 13 1013.4 1012.3 0.0
22/07:00am 21.4 19.6 15.5 69 3.5 ENE 19 24 10 13 1013.0 1011.9 0.0
22/06:30am 20.9 19.1 15.4 71 3.3 ENE 19 24 10 13 1012.6 1011.4 0.0
22/06:00am 21.1 19.7 15.6 71 3.3 ENE 17 20 9 11 1012.3 1011.1 0.0
22/05:30am 21.5 19.6 15.3 68 3.7 ENE 19 24 10 13 1011.9 1010.7 0.0
22/05:00am 21.9 20.1 15.5 67 3.9 ENE 19 28 10 15 1011.4 1010.3 0.0
22/04:30am 22.3 20.3 15.4 65 4.2 ENE 20 26 11 14 1011.0 1009.9 0.0
22/04:00am 22.6 20.7 15.2 63 4.4 ENE 19 26 10 14 1011.1 1010.0 0.0
22/03:30am 23.1 20.9 14.9 60 4.9 ENE 20 33 11 18 1011.0 1009.9 0.0
22/03:00am 22.9 21.9 14.5 59 5.0 ESE 13 17 7 9 1010.9 1009.8 0.0
22/02:30am 22.0 20.8 13.9 60 4.7 ENE 13 17 7 9 1011.0 1009.9 0.0
22/02:00am 21.5 20.6 12.6 57 5.1 ENE 9 13 5 7 1011.0 1009.9 0.0
22/01:30am 22.6 21.0 11.7 50 6.2 ENE 11 13 6 7 1011.2 1010.1 0.0
22/01:00am 24.0 21.8 10.7 43 7.5 ENE 13 17 7 9 1011.2 1010.1 0.0
22/12:30am 24.6 22.2 11.5 44 7.5 ENE 15 19 8 10 1011.1 1010.0 0.0
22/12:00am 25.3 23.0 12.9 46 7.3 ENE 17 20 9 11 1010.9 1009.8 0.0
 
Date/Time
EDT
Temp
°C
App
Temp
°C
Dew
Point
°C
Rel
Hum
%
Delta-T
°C
Wind Press
QNH
hPa
Press
MSL
hPa
Rain since
9am
mm
Dir  Spd
km/h
Gust
km/h
Spd
kts
Gust
kts
21/11:30pm 26.0 24.4 13.8 47 7.3 E 15 20 8 11 1010.9 1009.8 0.0
21/11:00pm 26.9 24.9 14.0 45 7.7 E 17 22 9 12 1010.8 1009.7 0.0
21/10:30pm 24.6 25.1 15.5 57 5.5 S 7 9 4 5 1010.5 1009.4 0.0
21/10:00pm 24.6 24.6 15.2 55 5.7 NW 9 9 5 5 1009.9 1008.8 0.0
21/09:30pm 25.7 25.3 12.5 44 7.7 SW 6 9 3 5 - - 0.0
21/09:00pm 26.3 25.2 12.0 41 8.3 SSW 9 11 5 6 - - 0.0
21/08:30pm 27.4 25.6 11.0 36 9.4 SSW 11 13 6 7 - - 0.0
21/08:00pm 30.0 27.1 9.5 28 11.6 SSW 15 19 8 10 - - 0.0
21/07:30pm 31.8 28.1 8.1 23 13.2 SSW 17 22 9 12 - - 0.0
21/07:00pm 32.4 28.2 7.3 21 13.8 S 19 24 10 13 - - 0.0
21/06:30pm 32.7 28.0 6.1 19 14.4 SSW 20 30 11 16 - - 0.0
21/06:00pm 32.9 28.1 5.5 18 14.7 SSW 20 30 11 16 - - 0.0
21/05:30pm 33.3 28.9 5.0 17 15.1 SSW 17 28 9 15 - - 0.0
21/05:00pm 32.7 27.7 3.6 16 15.1 SSW 19 32 10 17 - - 0.0
21/04:30pm 32.8 28.7 4.6 17 14.9 SW 15 24 8 13 - - 0.0
21/04:00pm 32.8 27.6 3.7 16 15.2 SSW 20 32 11 17 - - 0.0
21/03:30pm 32.7 28.7 2.7 15 15.4 SW 13 24 7 13 - - 0.0
21/03:00pm 32.8 27.7 2.8 15 15.4 SSW 19 30 10 16 1008.6 1007.5 0.0
21/02:30pm 32.4 27.4 3.4 16 15.0 SSW 19 32 10 17 1008.8 1007.7 0.0
21/02:00pm 31.1 25.4 0.5 14 15.0 SW 20 28 11 15 1008.9 1007.8 0.0
21/01:30pm 30.5 25.7 5.7 21 13.2 SW 20 33 11 18 1009.1 1008.0 0.0
21/01:00pm 29.9 25.4 5.9 22 12.8 SSW 19 30 10 16 1009.3 1008.2 0.0
21/12:30pm 28.8 23.7 6.2 24 12.0 SW 22 30 12 16 1009.5 1008.4 0.0
21/12:00pm 27.4 23.5 7.3 28 10.8 SW 17 26 9 14 1009.8 1008.7 0.0
21/11:30am 27.9 24.4 8.7 30 10.6 SW 17 26 9 14 1009.9 1008.8 0.0
21/11:00am 25.4 22.0 9.3 36 8.9 SSW 17 24 9 13 1010.1 1009.0 0.0
21/10:30am 24.5 21.7 11.5 44 7.4 SSW 17 26 9 14 1010.0 1008.9 0.0
21/10:00am 23.5 20.6 12.2 49 6.5 SSW 19 26 10 14 1010.1 1009.0 0.0
21/09:30am 23.2 20.6 13.1 53 5.9 SSW 19 26 10 14 1009.7 1008.6 0.0
21/09:00am 22.8 20.3 13.6 56 5.4 S 19 24 10 13 1009.4 1008.3 9.4
21/08:30am 21.3 18.7 13.7 62 4.4 S 20 26 11 14 1009.2 1008.1 9.4
21/08:00am 20.0 17.8 14.8 72 3.1 S 20 24 11 13 1008.9 1007.8 9.4
21/07:30am 19.2 17.0 14.9 76 2.5 SSW 20 26 11 14 1008.6 1007.5 9.4
21/07:00am 18.9 16.8 14.6 76 2.5 S 19 24 10 13 1008.3 1007.2 9.4
21/06:30am 19.2 17.7 16.8 86 1.5 S 20 30 11 16 1007.8 1006.6 9.4
21/06:00am 19.7 19.2 19.0 96 0.4 S 20 30 11 16 1007.3 1006.1 9.4
21/05:30am 20.2 20.0 19.7 97 0.3 SSW 20 26 11 14 1007.0 1005.8 9.4
21/05:00am 20.5 20.6 20.0 97 0.3 SSW 19 24 10 13 1006.6 1005.4 9.4
21/04:30am 20.5 21.8 20.2 98 0.2 SW 13 17 7 9 1006.4 1005.2 9.4
21/04:00am 20.7 22.5 20.4 98 0.2 SW 11 13 6 7 1006.1 1004.9 9.4
21/03:30am 20.8 23.6 20.5 98 0.2 WSW 6 7 3 4 1005.9 1004.7 9.4
21/03:00am 20.9 22.8 20.6 98 0.2 SW 11 13 6 7 1005.9 1004.7 9.4
21/02:30am 21.8 24.6 21.5 98 0.2 WSW 9 11 5 6 1005.9 1004.7 9.4
21/02:00am 22.4 25.0 21.9 97 0.3 SW 11 15 6 8 1005.6 1004.5 9.4
21/01:30am 22.9 25.0 22.4 97 0.3 SW 15 19 8 10 1005.4 1004.3 9.4
21/01:00am 23.3 25.2 22.8 97 0.3 SW 17 22 9 12 1005.5 1004.4 9.4
21/12:30am 24.0 26.7 23.5 97 0.3 SW 15 20 8 11 1005.3 1004.2 9.4
21/12:00am 24.4 26.2 23.2 93 0.8 SW 19 24 10 13 1005.2 1004.1 9.4
 
Date/Time
EDT
Temp
°C
App
Temp
°C
Dew
Point
°C
Rel
Hum
%
Delta-T
°C
Wind Press
QNH
hPa
Press
MSL
hPa
Rain since
9am
mm
Dir  Spd
km/h
Gust
km/h
Spd
kts
Gust
kts
20/11:30pm 24.4 26.4 23.9 97 0.3 SW 20 30 11 16 1005.0 1003.9 9.4
20/11:00pm 24.5 25.4 24.0 97 0.3 SW 26 35 14 19 1004.9 1003.8 9.4
20/10:30pm 24.8 27.1 24.5 98 0.2 SW 20 30 11 16 1004.4 1003.3 9.4
20/10:00pm 24.7 27.1 24.2 97 0.3 SW 19 24 10 13 1003.7 1002.6 9.4
20/09:33pm 24.7 24.5 24.4 98 0.2 SSW 33 52 18 28 1003.4 1002.3 9.4
20/09:30pm 24.7 24.1 24.4 98 0.2 SSW 35 52 19 28 1003.4 1002.3 9.4
20/09:03pm 25.8 25.6 24.4 92 1.0 SW 33 52 18 28 1002.7 1001.5 9.0
20/09:00pm 26.1 24.9 24.0 88 1.5 SW 37 52 20 28 1002.6 1001.4 9.0
20/08:52pm 27.9 26.5 22.2 71 3.9 WSW 33 48 18 26 1002.3 1001.1 9.0
20/08:30pm 29.1 29.1 21.6 64 5.1 W 24 32 13 17 1001.4 1000.2 9.0
20/08:00pm 29.3 30.0 21.5 63 5.3 WNW 20 26 11 14 1000.6 999.4 9.0
20/07:30pm 29.7 30.1 22.4 65 5.0 WNW 24 32 13 17 1000.2 999.0 9.0
20/07:00pm 30.1 29.6 21.5 60 5.8 WNW 26 35 14 19 999.8 998.7 9.0
20/06:30pm 30.0 30.7 22.9 65 4.9 W 24 28 13 15 999.7 998.6 9.0
20/06:00pm 31.1 32.6 22.7 61 5.8 WNW 19 24 10 13 999.3 998.2 9.0
20/05:30pm 31.0 30.7 22.6 61 5.8 WNW 28 33 15 18 999.6 998.5 9.0
20/05:00pm 31.9 29.7 21.4 53 7.1 WNW 35 44 19 24 999.7 998.6 9.0
20/04:30pm 32.3 29.7 22.1 55 7.0 WNW 39 50 21 27 999.8 998.7 9.0
20/04:00pm 33.0 31.1 22.7 54 7.1 WNW 37 50 20 27 1000.0 998.9 9.0
20/03:30pm 32.7 30.8 22.8 56 6.8 WNW 37 46 20 25 1000.2 999.0 9.0
20/03:00pm 32.5 30.4 23.7 59 6.2 WNW 41 56 22 30 1000.3 999.1 9.0
20/02:55pm 31.9 30.1 22.9 59 6.2 WNW 37 56 20 30 1000.3 999.1 9.0
20/02:30pm 30.8 32.1 25.8 74 3.6 WNW 30 44 16 24 1000.9 999.7 9.0
20/02:00pm 29.5 31.8 27.3 88 1.6 WNW 30 44 16 24 1001.3 1000.1 9.0
20/01:30pm 28.7 30.0 26.5 88 1.6 WNW 32 39 17 21 1002.2 1001.0 9.0
20/01:00pm 26.4 29.0 26.1 98 0.2 WNW 24 30 13 16 1002.9 1001.7 9.0
20/12:30pm 26.1 26.0 25.8 98 0.2 W 37 59 20 32 1003.3 1002.2 8.6
20/12:22pm 27.1 29.0 26.2 95 0.6 WNW 28 59 15 32 1003.5 1002.4 8.2
20/12:00pm 27.4 30.2 26.9 97 0.4 W 26 35 14 19 1003.2 1002.1 7.2
20/11:31am 28.0 27.7 24.2 80 2.6 WNW 33 54 18 29 1003.0 1001.8 0.0
20/11:30am 28.9 28.1 23.3 72 3.9 WNW 33 46 18 25 1003.0 1001.8 0.0
20/11:00am 31.7 31.2 22.1 56 6.6 NNW 28 39 15 21 1002.8 1001.6 0.0
20/10:30am 30.8 30.0 22.4 61 5.8 N 30 43 16 23 1003.0 1001.8 0.0
20/10:00am 29.5 28.4 22.5 66 4.8 N 32 43 17 23 1003.1 1002.0 0.0
20/09:30am 28.6 27.3 22.1 68 4.4 N 32 43 17 23 1003.4 1002.3 0.0

Other Formats:

Comma delimited format used in spreadsheet applications
http://www.bom.gov.au/fwo/IDN60801/IDN60801.95718.axf

JavaScript Object Notation format (JSON) in row-major order
http://www.bom.gov.au/fwo/IDN60801/IDN60801.95718.json